sensor_id;sensor_type;location;lat;lon;timestamp;P1;durP1;ratioP1;P2;durP2;ratioP2
55811;SDS011;41742;52.048;6.092;2022-08-21T00:00:12;3.92;;;0.95;;
55811;SDS011;41742;52.048;6.092;2022-08-21T00:02:47;2.97;;;0.82;;
55811;SDS011;41742;52.048;6.092;2022-08-21T00:05:19;1.60;;;0.77;;
55811;SDS011;41742;52.048;6.092;2022-08-21T00:07:45;2.35;;;0.80;;
55811;SDS011;41742;52.048;6.092;2022-08-21T00:10:11;3.38;;;0.88;;
55811;SDS011;41742;52.048;6.092;2022-08-21T00:12:36;5.18;;;1.23;;
55811;SDS011;41742;52.048;6.092;2022-08-21T00:15:05;2.67;;;0.95;;
55811;SDS011;41742;52.048;6.092;2022-08-21T00:17:32;2.90;;;0.68;;
55811;SDS011;41742;52.048;6.092;2022-08-21T00:19:58;2.03;;;0.80;;
55811;SDS011;41742;52.048;6.092;2022-08-21T00:22:24;4.47;;;0.57;;
55811;SDS011;41742;52.048;6.092;2022-08-21T00:24:49;0.88;;;0.55;;
55811;SDS011;41742;52.048;6.092;2022-08-21T00:27:15;1.90;;;0.95;;
55811;SDS011;41742;52.048;6.092;2022-08-21T00:29:40;1.83;;;0.77;;
55811;SDS011;41742;52.048;6.092;2022-08-21T00:32:06;0.77;;;0.73;;
55811;SDS011;41742;52.048;6.092;2022-08-21T00:34:32;1.45;;;0.60;;
55811;SDS011;41742;52.048;6.092;2022-08-21T00:36:57;0.95;;;0.60;;
55811;SDS011;41742;52.048;6.092;2022-08-21T00:39:23;0.93;;;0.60;;
55811;SDS011;41742;52.048;6.092;2022-08-21T00:41:49;1.77;;;0.70;;
55811;SDS011;41742;52.048;6.092;2022-08-21T00:44:14;2.33;;;0.80;;
55811;SDS011;41742;52.048;6.092;2022-08-21T00:46:41;2.63;;;0.88;;
55811;SDS011;41742;52.048;6.092;2022-08-21T00:49:08;1.65;;;0.93;;
55811;SDS011;41742;52.048;6.092;2022-08-21T00:51:55;2.65;;;0.82;;
55811;SDS011;41742;52.048;6.092;2022-08-21T00:54:24;1.58;;;0.68;;
55811;SDS011;41742;52.048;6.092;2022-08-21T00:56:53;1.30;;;0.82;;
55811;SDS011;41742;52.048;6.092;2022-08-21T00:59:21;1.20;;;0.70;;
55811;SDS011;41742;52.048;6.092;2022-08-21T01:01:49;1.52;;;0.80;;
55811;SDS011;41742;52.048;6.092;2022-08-21T01:04:15;2.72;;;0.88;;
55811;SDS011;41742;52.048;6.092;2022-08-21T01:06:42;0.63;;;0.63;;
55811;SDS011;41742;52.048;6.092;2022-08-21T01:09:07;1.55;;;0.65;;
55811;SDS011;41742;52.048;6.092;2022-08-21T01:11:34;1.20;;;0.70;;
55811;SDS011;41742;52.048;6.092;2022-08-21T01:14:01;1.35;;;0.82;;
55811;SDS011;41742;52.048;6.092;2022-08-21T01:16:27;1.13;;;0.80;;
55811;SDS011;41742;52.048;6.092;2022-08-21T01:18:53;1.55;;;1.05;;
55811;SDS011;41742;52.048;6.092;2022-08-21T01:21:24;1.45;;;1.02;;
55811;SDS011;41742;52.048;6.092;2022-08-21T01:23:51;1.98;;;1.13;;
55811;SDS011;41742;52.048;6.092;2022-08-21T01:26:20;2.00;;;0.88;;
55811;SDS011;41742;52.048;6.092;2022-08-21T01:28:50;1.55;;;0.88;;
55811;SDS011;41742;52.048;6.092;2022-08-21T01:33:48;1.10;;;0.80;;
55811;SDS011;41742;52.048;6.092;2022-08-21T01:36:13;1.63;;;0.80;;
55811;SDS011;41742;52.048;6.092;2022-08-21T01:38:39;3.42;;;1.42;;
55811;SDS011;41742;52.048;6.092;2022-08-21T01:41:05;0.82;;;0.50;;
55811;SDS011;41742;52.048;6.092;2022-08-21T01:43:30;1.60;;;0.90;;
55811;SDS011;41742;52.048;6.092;2022-08-21T01:45:56;1.85;;;0.80;;
55811;SDS011;41742;52.048;6.092;2022-08-21T01:48:22;2.25;;;0.98;;
55811;SDS011;41742;52.048;6.092;2022-08-21T01:50:47;1.92;;;0.95;;
55811;SDS011;41742;52.048;6.092;2022-08-21T01:53:13;1.95;;;0.80;;
55811;SDS011;41742;52.048;6.092;2022-08-21T01:55:40;1.55;;;0.93;;
55811;SDS011;41742;52.048;6.092;2022-08-21T01:58:07;4.32;;;0.80;;
55811;SDS011;41742;52.048;6.092;2022-08-21T02:00:32;1.23;;;0.70;;
55811;SDS011;41742;52.048;6.092;2022-08-21T02:02:58;0.60;;;0.52;;
55811;SDS011;41742;52.048;6.092;2022-08-21T02:05:24;1.52;;;1.00;;
55811;SDS011;41742;52.048;6.092;2022-08-21T02:07:50;1.05;;;0.73;;
55811;SDS011;41742;52.048;6.092;2022-08-21T02:10:18;1.98;;;1.00;;
55811;SDS011;41742;52.048;6.092;2022-08-21T02:12:46;3.30;;;1.00;;
55811;SDS011;41742;52.048;6.092;2022-08-21T02:15:12;1.00;;;0.60;;
55811;SDS011;41742;52.048;6.092;2022-08-21T02:17:40;1.73;;;1.00;;
55811;SDS011;41742;52.048;6.092;2022-08-21T02:20:08;1.42;;;0.90;;
55811;SDS011;41742;52.048;6.092;2022-08-21T02:22:34;1.27;;;0.85;;
55811;SDS011;41742;52.048;6.092;2022-08-21T02:25:00;1.10;;;0.63;;
55811;SDS011;41742;52.048;6.092;2022-08-21T02:27:26;2.42;;;0.90;;
55811;SDS011;41742;52.048;6.092;2022-08-21T02:29:51;2.08;;;0.63;;
55811;SDS011;41742;52.048;6.092;2022-08-21T02:32:18;2.45;;;0.80;;
55811;SDS011;41742;52.048;6.092;2022-08-21T02:34:43;1.98;;;0.90;;
55811;SDS011;41742;52.048;6.092;2022-08-21T02:37:09;0.93;;;0.80;;
55811;SDS011;41742;52.048;6.092;2022-08-21T02:39:36;1.42;;;0.93;;
55811;SDS011;41742;52.048;6.092;2022-08-21T02:42:02;0.68;;;0.45;;
55811;SDS011;41742;52.048;6.092;2022-08-21T02:44:28;3.95;;;1.00;;
55811;SDS011;41742;52.048;6.092;2022-08-21T02:46:53;0.70;;;0.43;;
55811;SDS011;41742;52.048;6.092;2022-08-21T02:49:19;1.42;;;0.88;;
55811;SDS011;41742;52.048;6.092;2022-08-21T02:51:44;1.50;;;0.70;;
55811;SDS011;41742;52.048;6.092;2022-08-21T02:54:10;0.70;;;0.70;;
55811;SDS011;41742;52.048;6.092;2022-08-21T02:56:35;0.73;;;0.70;;
55811;SDS011;41742;52.048;6.092;2022-08-21T02:59:01;3.17;;;1.08;;
55811;SDS011;41742;52.048;6.092;2022-08-21T03:01:27;1.80;;;0.68;;
55811;SDS011;41742;52.048;6.092;2022-08-21T03:03:52;1.67;;;1.00;;
55811;SDS011;41742;52.048;6.092;2022-08-21T03:06:19;1.48;;;0.70;;
55811;SDS011;41742;52.048;6.092;2022-08-21T03:08:46;2.40;;;0.82;;
55811;SDS011;41742;52.048;6.092;2022-08-21T03:11:12;1.33;;;0.80;;
55811;SDS011;41742;52.048;6.092;2022-08-21T03:13:39;1.10;;;0.98;;
55811;SDS011;41742;52.048;6.092;2022-08-21T03:16:04;1.20;;;0.70;;
55811;SDS011;41742;52.048;6.092;2022-08-21T03:18:31;2.00;;;1.10;;
55811;SDS011;41742;52.048;6.092;2022-08-21T03:20:56;1.88;;;0.50;;
55811;SDS011;41742;52.048;6.092;2022-08-21T03:23:22;1.85;;;1.00;;
55811;SDS011;41742;52.048;6.092;2022-08-21T03:25:47;0.85;;;0.80;;
55811;SDS011;41742;52.048;6.092;2022-08-21T03:28:16;4.55;;;0.90;;
55811;SDS011;41742;52.048;6.092;2022-08-21T03:30:44;1.10;;;0.82;;
55811;SDS011;41742;52.048;6.092;2022-08-21T03:33:11;1.27;;;0.60;;
55811;SDS011;41742;52.048;6.092;2022-08-21T03:35:37;2.80;;;0.73;;
55811;SDS011;41742;52.048;6.092;2022-08-21T03:38:03;1.83;;;1.00;;
55811;SDS011;41742;52.048;6.092;2022-08-21T03:40:29;2.03;;;1.10;;
55811;SDS011;41742;52.048;6.092;2022-08-21T03:42:55;2.83;;;1.00;;
55811;SDS011;41742;52.048;6.092;2022-08-21T03:45:20;0.90;;;0.68;;
55811;SDS011;41742;52.048;6.092;2022-08-21T03:47:50;2.60;;;0.80;;
55811;SDS011;41742;52.048;6.092;2022-08-21T03:50:17;2.55;;;0.88;;
55811;SDS011;41742;52.048;6.092;2022-08-21T03:52:43;3.75;;;1.05;;
55811;SDS011;41742;52.048;6.092;2022-08-21T03:55:10;1.48;;;0.88;;
55811;SDS011;41742;52.048;6.092;2022-08-21T03:57:35;1.95;;;1.00;;
55811;SDS011;41742;52.048;6.092;2022-08-21T04:00:01;3.13;;;1.15;;
55811;SDS011;41742;52.048;6.092;2022-08-21T04:02:30;1.27;;;0.80;;
55811;SDS011;41742;52.048;6.092;2022-08-21T04:04:56;1.40;;;0.90;;
55811;SDS011;41742;52.048;6.092;2022-08-21T04:07:21;2.88;;;1.25;;
55811;SDS011;41742;52.048;6.092;2022-08-21T04:09:47;1.42;;;0.80;;
55811;SDS011;41742;52.048;6.092;2022-08-21T04:12:12;1.60;;;0.90;;
55811;SDS011;41742;52.048;6.092;2022-08-21T04:14:38;4.13;;;0.90;;
55811;SDS011;41742;52.048;6.092;2022-08-21T04:17:04;0.85;;;0.63;;
55811;SDS011;41742;52.048;6.092;2022-08-21T04:19:30;2.05;;;0.65;;
55811;SDS011;41742;52.048;6.092;2022-08-21T04:21:56;2.47;;;1.08;;
55811;SDS011;41742;52.048;6.092;2022-08-21T04:24:22;1.30;;;0.65;;
55811;SDS011;41742;52.048;6.092;2022-08-21T04:26:47;2.40;;;0.85;;
55811;SDS011;41742;52.048;6.092;2022-08-21T04:29:13;0.50;;;0.50;;
55811;SDS011;41742;52.048;6.092;2022-08-21T04:31:39;2.20;;;0.93;;
55811;SDS011;41742;52.048;6.092;2022-08-21T04:34:05;0.95;;;0.75;;
55811;SDS011;41742;52.048;6.092;2022-08-21T04:36:31;1.00;;;0.65;;
55811;SDS011;41742;52.048;6.092;2022-08-21T04:38:58;1.20;;;0.68;;
55811;SDS011;41742;52.048;6.092;2022-08-21T04:41:24;1.45;;;0.80;;
55811;SDS011;41742;52.048;6.092;2022-08-21T04:43:49;1.00;;;0.80;;
55811;SDS011;41742;52.048;6.092;2022-08-21T04:46:15;4.97;;;1.00;;
55811;SDS011;41742;52.048;6.092;2022-08-21T04:48:41;1.10;;;0.68;;
55811;SDS011;41742;52.048;6.092;2022-08-21T04:51:07;5.82;;;0.90;;
55811;SDS011;41742;52.048;6.092;2022-08-21T04:53:37;3.58;;;0.82;;
55811;SDS011;41742;52.048;6.092;2022-08-21T04:56:14;1.85;;;0.98;;
55811;SDS011;41742;52.048;6.092;2022-08-21T04:58:44;1.02;;;0.90;;
55811;SDS011;41742;52.048;6.092;2022-08-21T05:01:12;2.58;;;0.60;;
55811;SDS011;41742;52.048;6.092;2022-08-21T05:03:40;1.30;;;0.75;;
55811;SDS011;41742;52.048;6.092;2022-08-21T05:06:08;3.42;;;0.98;;
55811;SDS011;41742;52.048;6.092;2022-08-21T05:08:36;1.55;;;0.75;;
55811;SDS011;41742;52.048;6.092;2022-08-21T05:11:03;1.40;;;0.82;;
55811;SDS011;41742;52.048;6.092;2022-08-21T05:13:29;2.70;;;1.00;;
55811;SDS011;41742;52.048;6.092;2022-08-21T05:15:55;0.65;;;0.63;;
55811;SDS011;41742;52.048;6.092;2022-08-21T05:18:21;1.40;;;0.85;;
55811;SDS011;41742;52.048;6.092;2022-08-21T05:20:46;7.70;;;1.10;;
55811;SDS011;41742;52.048;6.092;2022-08-21T05:23:12;4.85;;;0.90;;
55811;SDS011;41742;52.048;6.092;2022-08-21T05:25:39;1.25;;;0.77;;
55811;SDS011;41742;52.048;6.092;2022-08-21T05:28:06;1.70;;;1.00;;
55811;SDS011;41742;52.048;6.092;2022-08-21T05:30:32;3.80;;;1.35;;
55811;SDS011;41742;52.048;6.092;2022-08-21T05:33:00;2.50;;;1.42;;
55811;SDS011;41742;52.048;6.092;2022-08-21T05:35:27;1.67;;;1.10;;
55811;SDS011;41742;52.048;6.092;2022-08-21T05:37:54;2.65;;;1.08;;
55811;SDS011;41742;52.048;6.092;2022-08-21T05:40:20;3.17;;;0.90;;
55811;SDS011;41742;52.048;6.092;2022-08-21T05:42:45;1.40;;;1.02;;
55811;SDS011;41742;52.048;6.092;2022-08-21T05:45:11;1.33;;;1.00;;
55811;SDS011;41742;52.048;6.092;2022-08-21T05:47:37;2.05;;;1.00;;
55811;SDS011;41742;52.048;6.092;2022-08-21T05:50:03;2.20;;;0.90;;
55811;SDS011;41742;52.048;6.092;2022-08-21T05:52:29;1.88;;;0.80;;
55811;SDS011;41742;52.048;6.092;2022-08-21T05:54:55;4.55;;;1.38;;
55811;SDS011;41742;52.048;6.092;2022-08-21T05:57:21;2.08;;;1.00;;
55811;SDS011;41742;52.048;6.092;2022-08-21T05:59:47;2.33;;;1.08;;
55811;SDS011;41742;52.048;6.092;2022-08-21T06:02:13;2.13;;;1.20;;
55811;SDS011;41742;52.048;6.092;2022-08-21T06:04:39;1.25;;;0.98;;
55811;SDS011;41742;52.048;6.092;2022-08-21T06:07:06;1.63;;;1.05;;
55811;SDS011;41742;52.048;6.092;2022-08-21T06:09:33;2.05;;;1.08;;
55811;SDS011;41742;52.048;6.092;2022-08-21T06:12:03;1.20;;;0.80;;
55811;SDS011;41742;52.048;6.092;2022-08-21T06:14:29;4.40;;;1.73;;
55811;SDS011;41742;52.048;6.092;2022-08-21T06:17:00;3.63;;;1.02;;
55811;SDS011;41742;52.048;6.092;2022-08-21T06:19:30;1.92;;;1.20;;
55811;SDS011;41742;52.048;6.092;2022-08-21T06:21:55;3.78;;;2.08;;
55811;SDS011;41742;52.048;6.092;2022-08-21T06:24:21;5.57;;;1.88;;
55811;SDS011;41742;52.048;6.092;2022-08-21T06:26:47;4.72;;;2.00;;
55811;SDS011;41742;52.048;6.092;2022-08-21T06:29:13;4.13;;;2.00;;
55811;SDS011;41742;52.048;6.092;2022-08-21T06:31:41;2.88;;;2.10;;
55811;SDS011;41742;52.048;6.092;2022-08-21T06:34:08;4.85;;;2.72;;
55811;SDS011;41742;52.048;6.092;2022-08-21T06:36:33;5.45;;;2.35;;
55811;SDS011;41742;52.048;6.092;2022-08-21T06:38:59;5.80;;;2.88;;
55811;SDS011;41742;52.048;6.092;2022-08-21T06:41:25;6.03;;;2.42;;
55811;SDS011;41742;52.048;6.092;2022-08-21T06:43:51;7.43;;;2.97;;
55811;SDS011;41742;52.048;6.092;2022-08-21T06:46:16;7.75;;;3.10;;
55811;SDS011;41742;52.048;6.092;2022-08-21T06:48:42;6.72;;;3.00;;
55811;SDS011;41742;52.048;6.092;2022-08-21T06:51:07;5.35;;;2.40;;
55811;SDS011;41742;52.048;6.092;2022-08-21T06:53:33;3.15;;;2.25;;
55811;SDS011;41742;52.048;6.092;2022-08-21T06:55:59;4.07;;;2.22;;
55811;SDS011;41742;52.048;6.092;2022-08-21T06:58:25;6.68;;;2.50;;
55811;SDS011;41742;52.048;6.092;2022-08-21T07:00:51;4.22;;;2.10;;
55811;SDS011;41742;52.048;6.092;2022-08-21T07:03:18;8.48;;;2.30;;
55811;SDS011;41742;52.048;6.092;2022-08-21T07:05:48;4.93;;;2.55;;
55811;SDS011;41742;52.048;6.092;2022-08-21T07:08:14;5.50;;;1.98;;
55811;SDS011;41742;52.048;6.092;2022-08-21T07:10:40;10.25;;;2.50;;
55811;SDS011;41742;52.048;6.092;2022-08-21T07:13:06;6.55;;;2.10;;
55811;SDS011;41742;52.048;6.092;2022-08-21T07:15:31;6.57;;;2.28;;
55811;SDS011;41742;52.048;6.092;2022-08-21T07:17:58;5.00;;;2.35;;
55811;SDS011;41742;52.048;6.092;2022-08-21T07:20:25;4.95;;;2.10;;
55811;SDS011;41742;52.048;6.092;2022-08-21T07:22:51;5.68;;;2.13;;
55811;SDS011;41742;52.048;6.092;2022-08-21T07:25:17;8.98;;;2.25;;
55811;SDS011;41742;52.048;6.092;2022-08-21T07:27:42;6.93;;;2.20;;
55811;SDS011;41742;52.048;6.092;2022-08-21T07:30:08;3.45;;;2.05;;
55811;SDS011;41742;52.048;6.092;2022-08-21T07:32:34;5.15;;;2.03;;
55811;SDS011;41742;52.048;6.092;2022-08-21T07:35:00;13.25;;;2.13;;
55811;SDS011;41742;52.048;6.092;2022-08-21T07:37:25;9.70;;;2.00;;
55811;SDS011;41742;52.048;6.092;2022-08-21T07:39:51;8.48;;;2.30;;
55811;SDS011;41742;52.048;6.092;2022-08-21T07:42:16;6.78;;;1.90;;
55811;SDS011;41742;52.048;6.092;2022-08-21T07:44:42;6.53;;;1.90;;
55811;SDS011;41742;52.048;6.092;2022-08-21T07:47:08;2.22;;;1.73;;
55811;SDS011;41742;52.048;6.092;2022-08-21T07:49:34;5.05;;;1.90;;
55811;SDS011;41742;52.048;6.092;2022-08-21T07:52:00;7.30;;;1.70;;
55811;SDS011;41742;52.048;6.092;2022-08-21T07:54:26;4.22;;;1.67;;
55811;SDS011;41742;52.048;6.092;2022-08-21T07:56:52;3.25;;;1.80;;
55811;SDS011;41742;52.048;6.092;2022-08-21T07:59:17;5.10;;;1.90;;
55811;SDS011;41742;52.048;6.092;2022-08-21T08:01:43;5.20;;;1.40;;
55811;SDS011;41742;52.048;6.092;2022-08-21T08:04:09;3.25;;;1.45;;
55811;SDS011;41742;52.048;6.092;2022-08-21T08:06:34;5.30;;;1.50;;
55811;SDS011;41742;52.048;6.092;2022-08-21T08:09:00;5.20;;;1.75;;
55811;SDS011;41742;52.048;6.092;2022-08-21T08:11:28;3.58;;;1.38;;
55811;SDS011;41742;52.048;6.092;2022-08-21T08:13:54;3.30;;;1.75;;
55811;SDS011;41742;52.048;6.092;2022-08-21T08:16:22;6.55;;;2.20;;
55811;SDS011;41742;52.048;6.092;2022-08-21T08:18:48;8.15;;;1.70;;
55811;SDS011;41742;52.048;6.092;2022-08-21T08:21:13;6.15;;;2.08;;
55811;SDS011;41742;52.048;6.092;2022-08-21T08:23:39;10.52;;;2.03;;
55811;SDS011;41742;52.048;6.092;2022-08-21T08:26:05;3.42;;;1.25;;
55811;SDS011;41742;52.048;6.092;2022-08-21T08:28:31;16.48;;;2.05;;
55811;SDS011;41742;52.048;6.092;2022-08-21T08:30:58;9.80;;;2.40;;
55811;SDS011;41742;52.048;6.092;2022-08-21T08:33:25;4.88;;;1.77;;
55811;SDS011;41742;52.048;6.092;2022-08-21T08:35:50;6.70;;;1.92;;
55811;SDS011;41742;52.048;6.092;2022-08-21T08:38:17;7.25;;;1.90;;
55811;SDS011;41742;52.048;6.092;2022-08-21T08:40:50;6.75;;;2.00;;
55811;SDS011;41742;52.048;6.092;2022-08-21T08:43:18;3.67;;;1.40;;
55811;SDS011;41742;52.048;6.092;2022-08-21T08:45:45;6.38;;;2.17;;
55811;SDS011;41742;52.048;6.092;2022-08-21T08:48:14;8.45;;;2.10;;
55811;SDS011;41742;52.048;6.092;2022-08-21T08:50:52;5.82;;;2.03;;
55811;SDS011;41742;52.048;6.092;2022-08-21T08:53:24;5.85;;;1.67;;
55811;SDS011;41742;52.048;6.092;2022-08-21T08:55:59;9.68;;;1.75;;
55811;SDS011;41742;52.048;6.092;2022-08-21T08:58:32;2.42;;;1.60;;
55811;SDS011;41742;52.048;6.092;2022-08-21T09:01:02;14.48;;;2.55;;
55811;SDS011;41742;52.048;6.092;2022-08-21T09:03:31;5.38;;;2.30;;
55811;SDS011;41742;52.048;6.092;2022-08-21T09:06:03;8.95;;;1.75;;
55811;SDS011;41742;52.048;6.092;2022-08-21T09:17:12;5.72;;;1.42;;
55811;SDS011;41742;52.048;6.092;2022-08-21T09:22:51;9.60;;;1.67;;
55811;SDS011;41742;52.048;6.092;2022-08-21T09:25:42;4.65;;;1.83;;
55811;SDS011;41742;52.048;6.092;2022-08-21T09:28:14;4.78;;;1.17;;
55811;SDS011;41742;52.048;6.092;2022-08-21T09:30:40;5.85;;;1.40;;
55811;SDS011;41742;52.048;6.092;2022-08-21T09:33:06;6.97;;;1.80;;
55811;SDS011;41742;52.048;6.092;2022-08-21T09:35:34;7.20;;;1.90;;
55811;SDS011;41742;52.048;6.092;2022-08-21T09:38:03;5.55;;;1.40;;
55811;SDS011;41742;52.048;6.092;2022-08-21T09:45:34;9.98;;;2.10;;
55811;SDS011;41742;52.048;6.092;2022-08-21T09:48:13;9.40;;;1.85;;
55811;SDS011;41742;52.048;6.092;2022-08-21T09:50:43;5.50;;;0.97;;
55811;SDS011;41742;52.048;6.092;2022-08-21T09:53:21;2.88;;;1.17;;
55811;SDS011;41742;52.048;6.092;2022-08-21T09:55:57;3.97;;;1.65;;
55811;SDS011;41742;52.048;6.092;2022-08-21T09:58:45;4.60;;;1.17;;
55811;SDS011;41742;52.048;6.092;2022-08-21T10:01:18;2.53;;;0.98;;
55811;SDS011;41742;52.048;6.092;2022-08-21T10:03:46;5.70;;;0.90;;
55811;SDS011;41742;52.048;6.092;2022-08-21T10:06:21;3.85;;;1.08;;
55811;SDS011;41742;52.048;6.092;2022-08-21T10:08:49;7.00;;;1.65;;
55811;SDS011;41742;52.048;6.092;2022-08-21T10:11:16;3.90;;;1.40;;
55811;SDS011;41742;52.048;6.092;2022-08-21T10:16:58;13.90;;;1.52;;
55811;SDS011;41742;52.048;6.092;2022-08-21T10:25:14;2.20;;;0.93;;
55811;SDS011;41742;52.048;6.092;2022-08-21T10:30:34;2.95;;;1.10;;
55811;SDS011;41742;52.048;6.092;2022-08-21T10:47:04;3.40;;;0.98;;
55811;SDS011;41742;52.048;6.092;2022-08-21T10:55:21;2.80;;;0.82;;
55811;SDS011;41742;52.048;6.092;2022-08-21T10:58:04;7.38;;;1.10;;
55811;SDS011;41742;52.048;6.092;2022-08-21T11:00:46;6.50;;;1.25;;
55811;SDS011;41742;52.048;6.092;2022-08-21T11:03:21;2.67;;;0.63;;
55811;SDS011;41742;52.048;6.092;2022-08-21T11:05:54;2.72;;;1.00;;
55811;SDS011;41742;52.048;6.092;2022-08-21T11:08:44;11.57;;;1.50;;
55811;SDS011;41742;52.048;6.092;2022-08-21T11:11:18;4.03;;;1.27;;
55811;SDS011;41742;52.048;6.092;2022-08-21T11:17:02;5.18;;;0.93;;
55811;SDS011;41742;52.048;6.092;2022-08-21T11:19:35;3.38;;;1.00;;
55811;SDS011;41742;52.048;6.092;2022-08-21T11:22:06;2.00;;;0.70;;
55811;SDS011;41742;52.048;6.092;2022-08-21T11:25:07;1.80;;;0.80;;
55811;SDS011;41742;52.048;6.092;2022-08-21T11:27:46;2.80;;;0.93;;
55811;SDS011;41742;52.048;6.092;2022-08-21T11:30:17;1.63;;;0.88;;
55811;SDS011;41742;52.048;6.092;2022-08-21T11:43:17;4.35;;;1.27;;
55811;SDS011;41742;52.048;6.092;2022-08-21T11:45:47;4.03;;;1.08;;
55811;SDS011;41742;52.048;6.092;2022-08-21T11:50:47;2.63;;;1.15;;
55811;SDS011;41742;52.048;6.092;2022-08-21T11:53:15;2.47;;;0.82;;
55811;SDS011;41742;52.048;6.092;2022-08-21T11:56:03;5.18;;;1.20;;
55811;SDS011;41742;52.048;6.092;2022-08-21T11:58:32;3.03;;;0.98;;
55811;SDS011;41742;52.048;6.092;2022-08-21T12:01:05;3.30;;;0.80;;
55811;SDS011;41742;52.048;6.092;2022-08-21T12:03:36;3.90;;;0.75;;
55811;SDS011;41742;52.048;6.092;2022-08-21T12:06:08;3.20;;;1.05;;
55811;SDS011;41742;52.048;6.092;2022-08-21T12:08:38;1.77;;;0.88;;
55811;SDS011;41742;52.048;6.092;2022-08-21T12:16:28;6.68;;;1.08;;
55811;SDS011;41742;52.048;6.092;2022-08-21T12:19:08;5.68;;;0.75;;
55811;SDS011;41742;52.048;6.092;2022-08-21T12:21:52;3.88;;;0.82;;
55811;SDS011;41742;52.048;6.092;2022-08-21T12:24:38;6.35;;;1.10;;
55811;SDS011;41742;52.048;6.092;2022-08-21T12:27:28;2.10;;;0.60;;
55811;SDS011;41742;52.048;6.092;2022-08-21T12:29:58;1.00;;;0.60;;
55811;SDS011;41742;52.048;6.092;2022-08-21T12:32:29;7.13;;;0.88;;
55811;SDS011;41742;52.048;6.092;2022-08-21T12:37:42;4.28;;;0.85;;
55811;SDS011;41742;52.048;6.092;2022-08-21T12:40:14;2.75;;;0.85;;
55811;SDS011;41742;52.048;6.092;2022-08-21T12:42:47;4.25;;;0.70;;
55811;SDS011;41742;52.048;6.092;2022-08-21T12:45:26;3.13;;;0.80;;
55811;SDS011;41742;52.048;6.092;2022-08-21T12:48:00;1.52;;;0.80;;
55811;SDS011;41742;52.048;6.092;2022-08-21T12:55:55;5.50;;;1.10;;
55811;SDS011;41742;52.048;6.092;2022-08-21T12:58:25;5.57;;;0.95;;
55811;SDS011;41742;52.048;6.092;2022-08-21T13:00:52;3.65;;;0.77;;
55811;SDS011;41742;52.048;6.092;2022-08-21T13:03:21;2.03;;;0.68;;
55811;SDS011;41742;52.048;6.092;2022-08-21T13:05:48;2.80;;;1.00;;
55811;SDS011;41742;52.048;6.092;2022-08-21T13:08:18;4.15;;;1.15;;
55811;SDS011;41742;52.048;6.092;2022-08-21T13:10:46;5.97;;;1.20;;
55811;SDS011;41742;52.048;6.092;2022-08-21T13:13:17;2.97;;;0.95;;
55811;SDS011;41742;52.048;6.092;2022-08-21T13:15:46;2.43;;;0.80;;
55811;SDS011;41742;52.048;6.092;2022-08-21T13:18:22;2.13;;;0.77;;
55811;SDS011;41742;52.048;6.092;2022-08-21T13:20:50;5.43;;;0.82;;
55811;SDS011;41742;52.048;6.092;2022-08-21T13:23:23;10.07;;;1.05;;
55811;SDS011;41742;52.048;6.092;2022-08-21T13:25:52;7.68;;;0.82;;
55811;SDS011;41742;52.048;6.092;2022-08-21T13:28:21;9.68;;;1.13;;
55811;SDS011;41742;52.048;6.092;2022-08-21T13:30:48;3.15;;;0.77;;
55811;SDS011;41742;52.048;6.092;2022-08-21T13:33:20;6.30;;;1.20;;
55811;SDS011;41742;52.048;6.092;2022-08-21T13:36:03;4.53;;;0.65;;
55811;SDS011;41742;52.048;6.092;2022-08-21T13:38:42;6.07;;;0.73;;
55811;SDS011;41742;52.048;6.092;2022-08-21T13:43:49;2.97;;;1.00;;
55811;SDS011;41742;52.048;6.092;2022-08-21T13:46:22;3.78;;;1.02;;
55811;SDS011;41742;52.048;6.092;2022-08-21T13:48:51;0.55;;;0.52;;
55811;SDS011;41742;52.048;6.092;2022-08-21T13:51:18;4.88;;;1.33;;
55811;SDS011;41742;52.048;6.092;2022-08-21T13:53:46;5.38;;;0.80;;
55811;SDS011;41742;52.048;6.092;2022-08-21T13:56:25;1.20;;;0.73;;
55811;SDS011;41742;52.048;6.092;2022-08-21T13:58:59;3.30;;;0.93;;
55811;SDS011;41742;52.048;6.092;2022-08-21T14:01:27;3.75;;;0.80;;
55811;SDS011;41742;52.048;6.092;2022-08-21T14:04:12;8.65;;;0.98;;
55811;SDS011;41742;52.048;6.092;2022-08-21T14:06:44;1.98;;;0.77;;
55811;SDS011;41742;52.048;6.092;2022-08-21T14:09:28;2.08;;;0.57;;
55811;SDS011;41742;52.048;6.092;2022-08-21T14:11:58;1.42;;;0.50;;
55811;SDS011;41742;52.048;6.092;2022-08-21T14:14:31;2.15;;;0.70;;
55811;SDS011;41742;52.048;6.092;2022-08-21T14:17:07;2.47;;;0.93;;
55811;SDS011;41742;52.048;6.092;2022-08-21T14:19:41;3.70;;;0.70;;
55811;SDS011;41742;52.048;6.092;2022-08-21T14:22:22;1.83;;;0.77;;
55811;SDS011;41742;52.048;6.092;2022-08-21T14:24:59;1.48;;;0.77;;
55811;SDS011;41742;52.048;6.092;2022-08-21T14:27:31;3.88;;;0.80;;
55811;SDS011;41742;52.048;6.092;2022-08-21T14:30:08;1.00;;;0.70;;
55811;SDS011;41742;52.048;6.092;2022-08-21T14:32:41;6.43;;;0.82;;
55811;SDS011;41742;52.048;6.092;2022-08-21T14:35:07;3.17;;;0.80;;
55811;SDS011;41742;52.048;6.092;2022-08-21T14:37:33;2.40;;;0.93;;
55811;SDS011;41742;52.048;6.092;2022-08-21T14:39:59;4.68;;;0.80;;
55811;SDS011;41742;52.048;6.092;2022-08-21T14:42:25;2.72;;;0.68;;
55811;SDS011;41742;52.048;6.092;2022-08-21T14:44:50;6.00;;;1.08;;
55811;SDS011;41742;52.048;6.092;2022-08-21T14:47:19;3.22;;;0.70;;
55811;SDS011;41742;52.048;6.092;2022-08-21T14:49:45;4.28;;;1.10;;
55811;SDS011;41742;52.048;6.092;2022-08-21T14:52:10;6.88;;;0.80;;
55811;SDS011;41742;52.048;6.092;2022-08-21T14:54:36;2.28;;;0.90;;
55811;SDS011;41742;52.048;6.092;2022-08-21T14:57:04;1.98;;;0.88;;
55811;SDS011;41742;52.048;6.092;2022-08-21T14:59:34;2.00;;;0.70;;
55811;SDS011;41742;52.048;6.092;2022-08-21T15:02:01;1.30;;;0.80;;
55811;SDS011;41742;52.048;6.092;2022-08-21T15:04:29;4.53;;;0.85;;
55811;SDS011;41742;52.048;6.092;2022-08-21T15:06:54;2.67;;;0.68;;
55811;SDS011;41742;52.048;6.092;2022-08-21T15:09:20;5.82;;;0.77;;
55811;SDS011;41742;52.048;6.092;2022-08-21T15:11:46;1.77;;;0.80;;
55811;SDS011;41742;52.048;6.092;2022-08-21T15:14:19;5.95;;;0.73;;
55811;SDS011;41742;52.048;6.092;2022-08-21T15:16:47;4.38;;;1.20;;
55811;SDS011;41742;52.048;6.092;2022-08-21T15:19:13;2.22;;;0.63;;
55811;SDS011;41742;52.048;6.092;2022-08-21T15:21:39;1.08;;;0.55;;
55811;SDS011;41742;52.048;6.092;2022-08-21T15:24:04;2.33;;;0.80;;
55811;SDS011;41742;52.048;6.092;2022-08-21T15:26:30;2.60;;;0.73;;
55811;SDS011;41742;52.048;6.092;2022-08-21T15:28:55;1.63;;;0.60;;
55811;SDS011;41742;52.048;6.092;2022-08-21T15:31:21;3.53;;;1.00;;
55811;SDS011;41742;52.048;6.092;2022-08-21T15:33:47;3.05;;;0.75;;
55811;SDS011;41742;52.048;6.092;2022-08-21T15:36:12;3.50;;;0.80;;
55811;SDS011;41742;52.048;6.092;2022-08-21T15:38:38;4.07;;;1.00;;
55811;SDS011;41742;52.048;6.092;2022-08-21T15:41:04;3.38;;;1.00;;
55811;SDS011;41742;52.048;6.092;2022-08-21T15:43:32;3.25;;;0.52;;
55811;SDS011;41742;52.048;6.092;2022-08-21T15:46:02;3.47;;;1.00;;
55811;SDS011;41742;52.048;6.092;2022-08-21T15:48:27;1.42;;;0.60;;
55811;SDS011;41742;52.048;6.092;2022-08-21T15:50:53;3.50;;;0.80;;
55811;SDS011;41742;52.048;6.092;2022-08-21T15:53:19;1.67;;;1.00;;
55811;SDS011;41742;52.048;6.092;2022-08-21T15:55:44;1.95;;;0.60;;
55811;SDS011;41742;52.048;6.092;2022-08-21T15:58:12;1.30;;;0.73;;
55811;SDS011;41742;52.048;6.092;2022-08-21T16:00:41;1.75;;;0.50;;
55811;SDS011;41742;52.048;6.092;2022-08-21T16:03:09;1.75;;;0.77;;
55811;SDS011;41742;52.048;6.092;2022-08-21T16:05:40;2.10;;;0.80;;
55811;SDS011;41742;52.048;6.092;2022-08-21T16:08:05;1.10;;;0.32;;
55811;SDS011;41742;52.048;6.092;2022-08-21T16:10:31;1.45;;;0.60;;
55811;SDS011;41742;52.048;6.092;2022-08-21T16:13:01;4.05;;;0.75;;
55811;SDS011;41742;52.048;6.092;2022-08-21T16:15:28;2.53;;;0.95;;
55811;SDS011;41742;52.048;6.092;2022-08-21T16:17:55;6.38;;;1.08;;